Time;durP1;ratioP1;P1;durP2;ratioP2;P2;SDS_P1;SDS_P2;PMS_P1;PMS_P2;Temp;Humidity;BMP_temperature;BMP_pressure;BME280_temperature;BME280_humidity;BME280_pressure;Samples;Min_cycle;Max_cycle;Signal;HPM_P1;HPM_P2
2023/04/23 00:01:26;;;;;;;98.45;46.00;;;;;;;8.15;99.06;100694.13;5057408;28;20622;-72
2023/04/23 00:03:56;;;;;;;99.63;46.22;;;;;;;8.14;99.02;100684.50;5061950;28;20519;-70
2023/04/23 00:06:29;;;;;;;104.18;46.38;;;;;;;8.14;99.20;100684.50;5047912;28;20116;-70
2023/04/23 00:08:58;;;;;;;100.13;46.72;;;;;;;8.15;99.38;100680.13;5042785;28;20903;-70
2023/04/23 00:11:27;;;;;;;99.90;46.15;;;;;;;8.14;99.24;100676.63;5075290;28;20041;-70
2023/04/23 00:13:54;;;;;;;104.00;47.58;;;;;;;8.15;99.53;100680.97;5051523;28;20030;-71
2023/04/23 00:16:23;;;;;;;103.57;49.47;;;;;;;8.15;99.59;100675.72;5056980;28;20033;-70
2023/04/23 00:18:50;;;;;;;101.65;47.17;;;;;;;8.14;99.71;100674.00;5048587;28;20053;-70
2023/04/23 00:21:17;;;;;;;102.65;47.05;;;;;;;8.15;99.92;100669.63;5060755;28;20045;-69
2023/04/23 00:23:44;;;;;;;97.95;46.58;;;;;;;8.13;99.70;100669.69;5056808;28;20507;-69
2023/04/23 00:26:11;;;;;;;96.57;47.08;;;;;;;8.12;99.65;100665.31;5075396;28;20041;-69
2023/04/23 00:28:38;;;;;;;107.10;47.67;;;;;;;8.09;99.49;100668.84;5063356;28;20514;-69
2023/04/23 00:31:06;;;;;;;105.10;47.28;;;;;;;8.11;99.83;100666.22;5057924;28;20049;-70
2023/04/23 00:33:33;;;;;;;99.07;45.72;;;;;;;8.09;99.78;100674.09;5065354;28;20402;-70
2023/04/23 00:36:00;;;;;;;103.15;46.90;;;;;;;8.06;99.75;100668.94;5073598;28;20052;-69
2023/04/23 00:38:27;;;;;;;106.97;47.63;;;;;;;8.04;99.88;100660.25;5053048;28;20046;-70
2023/04/23 00:40:54;;;;;;;109.75;47.67;;;;;;;8.02;99.91;100654.16;5066412;28;20038;-70
2023/04/23 00:43:22;;;;;;;101.53;46.75;;;;;;;7.99;99.72;100650.72;5078609;28;20045;-69
2023/04/23 00:45:50;;;;;;;100.32;46.78;;;;;;;7.97;99.74;100645.53;5073152;28;20084;-70
2023/04/23 00:48:17;;;;;;;103.57;46.60;;;;;;;7.95;100.00;100652.56;5050654;28;20049;-70
2023/04/23 00:50:45;;;;;;;102.20;46.63;;;;;;;7.92;99.60;100652.63;5064560;28;20488;-70
2023/04/23 00:53:12;;;;;;;104.88;46.72;;;;;;;7.88;99.89;100649.22;5059464;28;20041;-70
2023/04/23 00:55:39;;;;;;;96.00;45.15;;;;;;;7.86;99.86;100652.78;5056975;28;20100;-70
2023/04/23 00:58:07;;;;;;;99.90;46.45;;;;;;;7.84;99.68;100644.06;5042172;28;20050;-70
2023/04/23 01:00:45;;;;;;;99.60;44.55;;;;;;;7.81;99.81;100646.75;5063051;28;20041;-70
2023/04/23 01:03:12;;;;;;;99.95;45.20;;;;;;;7.76;100.00;100644.22;5066706;28;20037;-70
2023/04/23 01:05:41;;;;;;;95.85;43.53;;;;;;;7.72;100.00;100640.81;5063722;28;21786;-70
2023/04/23 01:08:15;;;;;;;102.88;44.97;;;;;;;7.67;99.75;100637.44;5062140;28;20510;-70
2023/04/23 01:10:44;;;;;;;91.67;44.50;;;;;;;7.60;99.60;100631.44;5065629;28;20084;-70
2023/04/23 01:13:14;;;;;;;95.57;44.95;;;;;;;7.54;99.83;100628.94;5053450;28;20576;-70
2023/04/23 01:15:44;;;;;;;88.57;43.45;;;;;;;7.49;99.95;100625.56;5068229;28;20124;-70
2023/04/23 01:18:12;;;;;;;92.65;43.58;;;;;;;7.46;100.00;100617.75;5058392;28;21556;-70
2023/04/23 01:20:39;;;;;;;90.15;43.65;;;;;;;7.46;100.00;100607.25;5058409;28;20068;-70
2023/04/23 01:23:06;;;;;;;87.82;43.38;;;;;;;7.46;100.00;100608.13;5063730;28;20052;-70
2023/04/23 01:25:34;;;;;;;99.20;43.33;;;;;;;7.51;100.00;100607.16;5081926;28;20038;-70
2023/04/23 01:28:01;;;;;;;98.38;42.55;;;;;;;7.56;100.00;100614.03;5059051;28;20099;-70
2023/04/23 01:30:29;;;;;;;102.22;45.67;;;;;;;7.59;100.00;100613.09;5063839;28;20912;-71
2023/04/23 01:32:57;;;;;;;95.60;44.60;;;;;;;7.64;100.00;100611.25;5065671;28;20885;-71
2023/04/23 01:35:25;;;;;;;99.22;46.50;;;;;;;7.68;100.00;100606.81;5045127;28;20044;-71
2023/04/23 01:37:54;;;;;;;98.45;44.42;;;;;;;7.72;100.00;100611.94;5050981;28;20070;-71
2023/04/23 01:40:21;;;;;;;101.75;45.60;;;;;;;7.74;100.00;100604.91;5064815;28;20048;-71
2023/04/23 01:42:49;;;;;;;100.97;45.00;;;;;;;7.77;100.00;100615.34;5055961;28;20076;-71
2023/04/23 01:45:18;;;;;;;97.03;44.67;;;;;;;7.80;100.00;100608.28;5053466;28;20042;-71
2023/04/23 01:47:46;;;;;;;95.75;44.80;;;;;;;7.81;100.00;100605.63;5060617;28;20120;-71
2023/04/23 01:50:14;;;;;;;93.88;41.65;;;;;;;7.86;100.00;100611.63;5063853;28;20586;-71
2023/04/23 01:52:43;;;;;;;97.13;42.78;;;;;;;7.91;100.00;100609.78;5057926;28;20044;-72
2023/04/23 01:55:10;;;;;;;97.03;43.85;;;;;;;7.96;100.00;100611.41;5055958;28;20040;-72
2023/04/23 01:57:37;;;;;;;93.32;43.80;;;;;;;8.01;100.00;100599.91;5050839;28;20533;-72
2023/04/23 02:00:11;;;;;;;85.78;41.20;;;;;;;8.04;100.00;100594.59;5045398;28;20135;-71
2023/04/23 02:02:41;;;;;;;95.72;44.45;;;;;;;8.08;100.00;100601.53;5086820;28;20041;-71
2023/04/23 02:05:18;;;;;;;93.65;42.42;;;;;;;8.12;100.00;100602.31;5061520;28;20105;-71
2023/04/23 02:07:50;;;;;;;94.03;42.55;;;;;;;8.16;100.00;100598.69;5047623;28;20037;-70
2023/04/23 02:10:17;;;;;;;97.13;43.65;;;;;;;8.16;100.00;100603.94;5059590;28;22240;-70
2023/04/23 02:12:45;;;;;;;89.38;42.95;;;;;;;8.17;100.00;100602.19;5058489;28;20056;-71
2023/04/23 02:15:14;;;;;;;90.93;42.47;;;;;;;8.16;100.00;100597.84;5059597;28;20078;-72
2023/04/23 02:17:41;;;;;;;87.25;41.42;;;;;;;8.14;100.00;100589.13;5058338;28;20046;-71
2023/04/23 02:20:10;;;;;;;84.40;41.30;;;;;;;8.15;100.00;100598.72;5059162;28;20064;-71
2023/04/23 02:22:40;;;;;;;85.20;40.63;;;;;;;8.14;100.00;100583.88;5054637;28;20052;-71
2023/04/23 02:25:08;;;;;;;86.45;40.38;;;;;;;8.16;100.00;100590.81;5060739;28;20113;-72
2023/04/23 02:27:35;;;;;;;77.88;40.17;;;;;;;8.14;100.00;100583.88;5047502;28;20251;-72
2023/04/23 02:30:03;;;;;;;79.38;38.75;;;;;;;8.14;100.00;100595.22;5059749;28;20050;-72
2023/04/23 02:32:30;;;;;;;89.03;41.35;;;;;;;8.15;100.00;100588.22;5063781;28;20037;-72
2023/04/23 02:34:58;;;;;;;83.00;39.70;;;;;;;8.16;100.00;100588.19;5061902;28;20120;-71
2023/04/23 02:37:25;;;;;;;84.75;40.40;;;;;;;8.15;100.00;100581.19;5081362;28;20052;-71
2023/04/23 02:39:53;;;;;;;81.45;40.67;;;;;;;8.17;100.00;100586.44;5060271;28;20048;-72
2023/04/23 02:42:20;;;;;;;76.88;39.38;;;;;;;8.16;100.00;100580.31;5061287;28;20095;-72
2023/04/23 02:44:47;;;;;;;76.72;39.22;;;;;;;8.14;100.00;100578.63;5059514;28;20151;-72
2023/04/23 02:47:14;;;;;;;81.05;40.10;;;;;;;8.14;100.00;100586.50;5060599;28;20045;-72
2023/04/23 02:49:41;;;;;;;78.43;38.83;;;;;;;8.12;100.00;100590.91;5051563;28;20088;-72
2023/04/23 02:52:10;;;;;;;83.57;39.47;;;;;;;8.07;100.00;100575.28;5050227;28;20033;-72
2023/04/23 02:54:37;;;;;;;78.30;40.17;;;;;;;8.03;100.00;100590.25;5068327;28;20045;-72
2023/04/23 02:57:05;;;;;;;72.53;37.05;;;;;;;7.99;100.00;100583.31;5082459;28;20088;-71
2023/04/23 02:59:34;;;;;;;78.07;39.25;;;;;;;7.92;100.00;100582.63;5077779;28;20087;-72
2023/04/23 03:02:02;;;;;;;75.57;38.55;;;;;;;7.87;100.00;100578.41;5046922;28;20140;-72
2023/04/23 03:04:29;;;;;;;76.00;36.78;;;;;;;7.84;100.00;100579.31;5070009;28;20356;-72
2023/04/23 03:06:56;;;;;;;76.22;39.00;;;;;;;7.80;100.00;100572.41;5063603;28;20578;-72
2023/04/23 03:09:23;;;;;;;77.95;38.83;;;;;;;7.75;100.00;100569.03;5071673;28;20598;-71
2023/04/23 03:11:50;;;;;;;73.13;38.38;;;;;;;7.70;100.00;100574.38;5056494;28;20034;-71
2023/04/23 03:14:17;;;;;;;71.57;38.15;;;;;;;7.66;100.00;100575.34;5062790;28;20057;-71
2023/04/23 03:16:45;;;;;;;77.70;37.83;;;;;;;7.65;100.00;100573.63;5089551;28;20040;-71
2023/04/23 03:19:12;;;;;;;79.88;38.72;;;;;;;7.61;100.00;100567.59;5064556;28;20045;-71
2023/04/23 03:21:39;;;;;;;88.45;42.00;;;;;;;7.60;100.00;100576.34;5064737;28;20489;-71
2023/04/23 03:24:07;;;;;;;82.40;41.22;;;;;;;7.57;100.00;100568.53;5058074;28;20052;-72
2023/04/23 03:26:34;;;;;;;83.90;40.00;;;;;;;7.57;100.00;100568.53;5067565;28;20483;-71
2023/04/23 03:29:02;;;;;;;86.35;40.92;;;;;;;7.54;100.00;100568.59;5062226;28;20103;-71
2023/04/23 03:31:29;;;;;;;86.03;40.45;;;;;;;7.58;100.00;100572.91;5061963;28;20077;-71
2023/04/23 03:33:56;;;;;;;78.22;37.80;;;;;;;7.56;100.00;100569.44;5036984;28;20048;-71
2023/04/23 03:36:31;;;;;;;74.68;38.03;;;;;;;7.52;100.00;100561.66;5079626;28;20091;-71
2023/04/23 03:38:59;;;;;;;75.78;37.47;;;;;;;7.51;100.00;100552.06;5047214;28;20136;-71
2023/04/23 03:41:31;;;;;;;78.93;39.28;;;;;;;7.49;100.00;100565.22;5063762;28;20047;-71
2023/04/23 03:43:59;;;;;;;83.95;39.80;;;;;;;7.49;100.00;100565.22;5069197;28;20045;-70
2023/04/23 03:46:38;;;;;;;76.53;38.80;;;;;;;7.50;100.00;100560.84;5060490;28;20111;-70
2023/04/23 03:49:05;;;;;;;78.53;39.45;;;;;;;7.50;100.00;100561.72;5050360;28;20041;-71
2023/04/23 03:51:32;;;;;;;77.43;37.53;;;;;;;7.51;100.00;100557.31;5063036;28;20128;-70
2023/04/23 03:54:00;;;;;;;78.93;38.65;;;;;;;7.52;100.00;100554.69;5063409;28;20067;-70
2023/04/23 03:56:35;;;;;;;77.75;37.67;;;;;;;7.52;100.00;100554.69;5042676;28;20033;-70
2023/04/23 03:59:23;;;;;;;76.82;37.25;;;;;;;7.52;100.00;100554.69;5055992;28;20055;-70
2023/04/23 04:01:52;;;;;;;70.53;36.78;;;;;;;7.53;100.00;100555.53;5070283;28;20037;-70
2023/04/23 04:04:20;;;;;;;75.07;35.85;;;;;;;7.56;100.00;100556.31;5064568;28;20048;-71
2023/04/23 04:06:49;;;;;;;73.43;36.42;;;;;;;7.60;100.00;100549.25;5077863;28;20043;-70
2023/04/23 04:09:16;;;;;;;74.80;37.25;;;;;;;7.65;100.00;100554.38;5066984;28;20045;-70
2023/04/23 04:11:43;;;;;;;71.60;37.83;;;;;;;7.67;100.00;100544.72;5068368;28;20083;-70
2023/04/23 04:14:10;;;;;;;71.68;37.00;;;;;;;7.68;100.00;100547.28;5070861;28;20119;-70
2023/04/23 04:16:37;;;;;;;66.95;35.90;;;;;;;7.70;100.00;100548.13;5073168;28;20048;-70
2023/04/23 04:19:04;;;;;;;70.45;36.33;;;;;;;7.71;100.00;100542.00;5063024;28;20042;-70
2023/04/23 04:21:32;;;;;;;63.28;34.80;;;;;;;7.77;100.00;100549.75;5061104;28;20049;-71
2023/04/23 04:24:05;;;;;;;64.18;36.15;;;;;;;7.82;100.00;100551.38;5066396;28;20103;-71
2023/04/23 04:26:33;;;;;;;62.47;33.25;;;;;;;7.86;100.00;100548.63;5060080;28;20391;-70
2023/04/23 04:29:00;;;;;;;63.53;34.28;;;;;;;7.93;100.00;100558.13;5061068;28;20043;-70
2023/04/23 04:31:28;;;;;;;60.00;34.10;;;;;;;7.95;100.00;100547.56;5064223;28;20476;-71
2023/04/23 04:33:55;;;;;;;59.88;34.38;;;;;;;8.00;100.00;100555.34;5052711;28;20038;-71
2023/04/23 04:36:26;;;;;;;57.13;31.75;;;;;;;8.05;100.00;100550.81;5061721;28;20076;-70
2023/04/23 04:38:57;;;;;;;55.00;29.92;;;;;;;8.09;100.00;100549.84;5078448;28;20064;-72
2023/04/23 04:41:24;;;;;;;53.58;31.10;;;;;;;8.15;100.00;100554.09;5063738;28;20576;-71
2023/04/23 04:43:53;;;;;;;49.28;29.35;;;;;;;8.24;100.00;100556.47;5059171;28;20752;-71
2023/04/23 04:46:20;;;;;;;46.45;28.60;;;;;;;8.33;100.00;100561.50;5062772;28;20107;-71
2023/04/23 04:48:47;;;;;;;48.00;29.38;;;;;;;8.76;100.00;100561.31;5056997;28;20049;-71
2023/04/23 04:51:15;;;;;;;46.28;28.23;;;;;;;9.34;100.00;100553.53;5064362;28;20664;-70
2023/04/23 04:53:42;;;;;;;42.00;27.45;;;;;;;9.38;100.00;100549.91;5059159;28;20042;-71
2023/04/23 04:56:09;;;;;;;40.08;25.65;;;;;;;9.29;100.00;100558.94;5063516;28;20041;-70
2023/04/23 04:58:36;;;;;;;36.40;24.75;;;;;;;9.19;100.00;100556.59;5060312;28;20037;-70
2023/04/23 05:01:04;;;;;;;36.13;24.13;;;;;;;9.09;100.00;100561.28;5079158;28;20044;-70
2023/04/23 05:03:31;;;;;;;35.47;24.05;;;;;;;9.00;100.00;100567.66;5063935;28;20131;-71
2023/04/23 05:05:59;;;;;;;33.08;24.20;;;;;;;8.96;100.00;100560.75;5065208;28;20091;-71
2023/04/23 05:08:26;;;;;;;33.75;24.08;;;;;;;8.90;100.00;100553.03;5079445;28;20064;-69
2023/04/23 05:10:53;;;;;;;33.85;22.85;;;;;;;8.85;100.00;100548.75;5062942;28;20041;-70
2023/04/23 05:13:21;;;;;;;33.80;22.58;;;;;;;8.79;100.00;100548.94;5066850;28;20037;-70
2023/04/23 05:15:48;;;;;;;33.97;23.70;;;;;;;8.77;100.00;100552.53;5055374;28;20042;-70
2023/04/23 05:18:15;;;;;;;32.85;23.83;;;;;;;8.73;100.00;100545.63;5063793;28;20096;-70
2023/04/23 05:20:42;;;;;;;31.83;23.13;;;;;;;8.74;100.00;100542.09;5068805;28;20037;-70
2023/04/23 05:23:09;;;;;;;30.27;22.40;;;;;;;8.79;100.00;100551.56;5079929;28;20914;-69
2023/04/23 05:25:36;;;;;;;33.88;23.33;;;;;;;9.24;99.67;100557.34;5060258;28;20033;-70
2023/04/23 05:28:03;;;;;;;30.63;22.17;;;;;;;9.89;98.02;100558.88;5068004;28;20041;-70
2023/04/23 05:30:30;;;;;;;27.58;19.92;;;;;;;10.73;95.55;100564.03;5062795;28;20037;-71
2023/04/23 05:32:57;;;;;;;25.85;19.38;;;;;;;10.64;95.38;100559.94;5066045;28;20045;-73
2023/04/23 05:35:25;;;;;;;23.20;17.83;;;;;;;12.37;90.37;100563.00;5062236;28;20097;-70
2023/04/23 05:37:52;;;;;;;22.02;17.17;;;;;;;12.71;88.55;100566.84;5063586;28;20148;-70
2023/04/23 05:40:19;;;;;;;21.75;17.05;;;;;;;12.91;86.85;100556.34;5072974;28;20032;-70
2023/04/23 05:42:46;;;;;;;19.15;15.27;;;;;;;12.37;88.07;100563.00;5060969;28;20033;-70
2023/04/23 05:45:13;;;;;;;20.02;16.00;;;;;;;11.91;89.08;100556.97;5049189;28;20040;-70
2023/04/23 05:47:40;;;;;;;20.70;16.10;;;;;;;11.57;90.17;100548.59;5080142;28;20061;-69
2023/04/23 05:50:10;;;;;;;19.83;16.00;;;;;;;11.40;90.91;100557.19;5063170;28;20041;-70
2023/04/23 05:52:38;;;;;;;20.38;16.10;;;;;;;11.29;91.63;100557.56;5054140;28;20033;-70
2023/04/23 05:55:08;;;;;;;20.35;15.90;;;;;;;11.24;91.92;100558.69;5063707;28;20041;-70
2023/04/23 05:57:37;;;;;;;20.40;16.40;;;;;;;11.24;91.56;100556.03;5064957;28;20115;-70
2023/04/23 06:00:08;;;;;;;20.98;16.38;;;;;;;11.25;91.64;100549.81;5066113;28;20052;-70
2023/04/23 06:02:40;;;;;;;20.77;16.88;;;;;;;11.13;92.01;100552.03;5051641;28;20110;-71
2023/04/23 06:05:08;;;;;;;22.83;16.25;;;;;;;11.02;92.29;100557.69;5055020;28;20041;-71
2023/04/23 06:07:35;;;;;;;24.67;17.08;;;;;;;11.02;92.50;100559.47;5077992;28;20041;-71
2023/04/23 06:10:04;;;;;;;21.42;17.45;;;;;;;11.03;93.00;100556.78;5060232;28;20045;-71
2023/04/23 06:12:31;;;;;;;21.30;16.15;;;;;;;11.08;93.11;100555.75;5065390;28;20092;-72
2023/04/23 06:14:58;;;;;;;18.70;15.75;;;;;;;11.17;93.50;100550.13;5066441;28;20041;-71
2023/04/23 06:17:25;;;;;;;18.85;15.80;;;;;;;11.31;93.72;100547.81;5067408;28;20093;-71
2023/04/23 06:19:52;;;;;;;21.33;15.25;;;;;;;11.45;93.65;100544.66;5072290;28;20045;-73
2023/04/23 06:22:19;;;;;;;19.70;14.82;;;;;;;11.56;93.34;100544.25;5057020;28;20033;-71
2023/04/23 06:24:46;;;;;;;20.92;14.65;;;;;;;11.65;92.89;100546.53;5053704;28;20043;-72
2023/04/23 06:27:14;;;;;;;18.48;14.98;;;;;;;11.77;92.80;100544.31;5063565;28;20037;-72
2023/04/23 06:29:45;;;;;;;17.58;14.18;;;;;;;11.88;92.94;100549.16;5069533;28;20138;-72
2023/04/23 06:32:12;;;;;;;16.70;12.90;;;;;;;11.96;92.31;100547.06;5058424;28;20043;-72
2023/04/23 06:34:39;;;;;;;16.80;13.23;;;;;;;12.03;91.82;100540.66;5079896;28;20425;-72
2023/04/23 06:37:27;;;;;;;15.10;12.57;;;;;;;12.13;91.82;100532.34;5082403;28;20532;-72
2023/04/23 06:39:56;;;;;;;14.88;12.60;;;;;;;12.23;91.73;100534.53;5066039;28;20579;-71
2023/04/23 06:42:24;;;;;;;13.13;11.25;;;;;;;12.33;91.91;100531.47;5074938;28;20052;-72
2023/04/23 06:45:11;;;;;;;14.95;11.15;;;;;;;12.47;91.49;100538.81;5081363;28;20046;-71
2023/04/23 06:47:38;;;;;;;12.73;10.57;;;;;;;12.56;90.82;100528.72;5069073;28;20072;-72
2023/04/23 06:50:07;;;;;;;14.27;10.75;;;;;;;12.68;90.59;100523.81;5064297;28;20507;-72
2023/04/23 06:52:35;;;;;;;11.98;9.55;;;;;;;12.77;90.50;100520.75;5061827;28;20120;-71
2023/04/23 06:55:02;;;;;;;13.70;9.60;;;;;;;12.86;90.05;100520.34;5077913;28;20040;-71
2023/04/23 06:57:30;;;;;;;9.98;8.80;;;;;;;12.96;89.42;100512.00;5050619;28;20044;-72
2023/04/23 06:59:57;;;;;;;14.50;9.52;;;;;;;13.03;88.96;100514.31;5065888;28;20044;-71
2023/04/23 07:02:29;;;;;;;11.18;9.15;;;;;;;13.14;89.08;100515.59;5065610;28;20614;-71
2023/04/23 07:04:56;;;;;;;12.95;8.85;;;;;;;13.24;88.03;100513.34;5069824;28;20041;-71
2023/04/23 07:07:24;;;;;;;11.52;8.85;;;;;;;13.33;87.99;100512.94;5081933;28;20151;-71
2023/04/23 07:09:51;;;;;;;10.40;8.45;;;;;;;13.43;87.64;100510.75;5061580;28;20037;-71
2023/04/23 07:12:18;;;;;;;12.52;9.05;;;;;;;13.52;85.91;100502.38;5062930;28;20547;-71
2023/04/23 07:14:45;;;;;;;12.20;9.05;;;;;;;13.58;85.99;100504.69;5056831;28;20034;-71
2023/04/23 07:17:12;;;;;;;12.25;8.63;;;;;;;13.64;nan;100501.78;5066215;28;20500;-72
2023/04/23 07:19:39;;;;;;;11.50;8.55;;;;;;;13.71;85.13;100504.13;5068294;28;20044;-72
2023/04/23 07:22:06;;;;;;;12.25;8.07;;;;;;;13.76;84.56;100494.16;5064930;28;20121;-72
2023/04/23 07:24:33;;;;;;;11.25;8.10;;;;;;;13.83;85.01;100495.56;5057393;28;20045;-70
2023/04/23 07:27:02;;;;;;;12.25;8.27;;;;;;;13.88;85.03;100498.88;5064208;28;20041;-70
2023/04/23 07:29:30;;;;;;;10.48;8.23;;;;;;;13.94;85.00;100493.25;5061650;28;20049;-70
2023/04/23 07:31:57;;;;;;;9.60;7.65;;;;;;;13.99;84.63;100495.66;5066184;28;20037;-70
2023/04/23 07:34:25;;;;;;;10.18;7.25;;;;;;;14.05;83.26;100494.50;5064250;28;20045;-70
2023/04/23 07:36:52;;;;;;;11.00;7.05;;;;;;;14.05;83.09;100495.34;5061491;28;20500;-70
2023/04/23 07:39:19;;;;;;;11.60;7.13;;;;;;;14.10;82.82;100490.69;5066268;28;20056;-69
2023/04/23 07:41:46;;;;;;;9.13;7.07;;;;;;;14.17;82.44;100485.94;5060608;28;20107;-69
2023/04/23 07:44:13;;;;;;;8.85;6.78;;;;;;;14.22;82.66;100491.00;5060244;28;20044;-70
2023/04/23 07:46:40;;;;;;;10.75;6.55;;;;;;;14.29;82.20;100497.69;5066545;28;20049;-70
2023/04/23 07:49:07;;;;;;;9.88;6.80;;;;;;;14.35;81.61;100496.53;5063214;28;20546;-69
2023/04/23 07:51:34;;;;;;;11.40;6.50;;;;;;;14.39;81.50;100490.97;5060359;28;20053;-69
2023/04/23 07:54:02;;;;;;;9.50;6.78;;;;;;;14.47;81.69;100489.72;5059928;28;20045;-70
2023/04/23 07:56:31;;;;;;;10.77;6.60;;;;;;;14.54;81.47;100499.94;5063602;28;20041;-69
2023/04/23 07:58:59;;;;;;;10.00;6.88;;;;;;;14.64;81.36;100494.16;5064025;28;20148;-70
2023/04/23 08:01:26;;;;;;;10.55;6.95;;;;;;;14.68;80.89;100488.63;5062648;28;20899;-70
2023/04/23 08:03:55;;;;;;;9.57;6.22;;;;;;;14.75;81.04;100484.69;5056590;28;20487;-70
2023/04/23 08:06:28;;;;;;;10.73;5.90;;;;;;;14.87;80.75;100485.84;5059838;28;20060;-69
2023/04/23 08:08:56;;;;;;;9.50;6.47;;;;;;;14.97;80.33;100485.34;5057975;28;20124;-70
2023/04/23 08:11:23;;;;;;;10.80;5.90;;;;;;;15.04;80.37;100476.09;5061276;28;20492;-70
2023/04/23 08:13:50;;;;;;;11.93;6.22;;;;;;;15.13;79.03;100480.91;5060654;28;20033;-70
2023/04/23 08:16:17;;;;;;;8.20;5.95;;;;;;;15.21;79.55;100477.84;5078611;28;20041;-70
2023/04/23 08:18:45;;;;;;;10.98;6.07;;;;;;;15.33;79.65;100470.97;5061578;28;20500;-71
2023/04/23 08:21:32;;;;;;;9.93;5.88;;;;;;;15.44;78.87;100470.38;5054118;28;20038;-70
2023/04/23 08:23:59;;;;;;;9.10;5.72;;;;;;;15.49;78.87;100469.19;5056499;28;20095;-70
2023/04/23 08:26:26;;;;;;;9.35;4.93;;;;;;;15.55;78.54;100467.09;5060496;28;20048;-71
2023/04/23 08:28:53;;;;;;;14.45;5.35;;;;;;;15.60;78.37;100471.22;5077702;28;20092;-70
2023/04/23 08:31:20;;;;;;;9.02;4.60;;;;;;;15.65;77.90;100466.50;5060384;28;20691;-70
2023/04/23 08:33:53;;;;;;;7.47;5.18;;;;;;;15.76;77.80;100465.88;5066884;28;20040;-70
2023/04/23 08:36:20;;;;;;;9.90;4.90;;;;;;;15.87;77.98;100467.94;5058543;28;20041;-70
2023/04/23 08:38:47;;;;;;;9.57;4.40;;;;;;;15.95;77.19;100471.00;5062186;28;20037;-70
2023/04/23 08:41:17;;;;;;;8.88;4.40;;;;;;;16.06;77.34;100465.03;5048656;28;20045;-70
2023/04/23 08:44:11;;;;;;;8.55;4.07;;;;;;;16.18;76.71;100468.75;5067651;28;20033;-70
2023/04/23 08:46:43;;;;;;;8.23;4.13;;;;;;;16.26;75.52;100468.31;5063052;28;20063;-70
2023/04/23 08:49:16;;;;;;;8.75;3.63;;;;;;;16.27;75.39;100462.06;5061438;28;20041;-70
2023/04/23 08:51:53;;;;;;;9.00;3.50;;;;;;;16.35;73.85;100465.09;5062089;28;20668;-70
2023/04/23 08:54:30;;;;;;;7.82;3.30;;;;;;;16.47;74.02;100471.50;5063399;28;20048;-70
2023/04/23 08:56:58;;;;;;;6.80;2.95;;;;;;;16.53;72.64;100468.44;5065029;28;20037;-70
2023/04/23 08:59:28;;;;;;;9.85;2.75;;;;;;;16.49;72.19;100464.25;5063446;28;20045;-70
2023/04/23 09:01:56;;;;;;;6.55;2.60;;;;;;;16.47;72.50;100460.84;5081033;28;20583;-70
2023/04/23 09:04:24;;;;;;;6.97;2.80;;;;;;;16.56;71.84;100462.06;5064407;28;20076;-70
2023/04/23 09:06:52;;;;;;;7.57;2.55;;;;;;;16.64;71.24;100457.13;5068019;28;20691;-70
2023/04/23 09:09:22;;;;;;;9.00;2.63;;;;;;;16.74;70.46;100457.44;5064240;28;20039;-70
2023/04/23 09:11:49;;;;;;;7.90;2.50;;;;;;;16.88;70.55;100456.56;5057984;28;20564;-70
2023/04/23 09:14:26;;;;;;;6.40;2.65;;;;;;;17.02;69.98;100451.25;5066997;28;20648;-70
2023/04/23 09:16:54;;;;;;;7.43;2.72;;;;;;;17.13;68.55;100447.91;5064292;28;20124;-70
2023/04/23 09:19:26;;;;;;;7.07;2.28;;;;;;;17.28;68.41;100450.53;5062140;28;20067;-70
2023/04/23 09:21:54;;;;;;;7.78;2.35;;;;;;;17.47;67.87;100452.84;5040913;28;20545;-70
2023/04/23 09:24:22;;;;;;;7.53;2.50;;;;;;;17.59;67.63;100454.72;5062380;28;20068;-70
2023/04/23 09:26:51;;;;;;;7.22;2.28;;;;;;;17.73;64.85;100455.63;5057449;28;20037;-70
2023/04/23 09:29:22;;;;;;;7.88;2.50;;;;;;;17.84;66.43;100451.25;5064769;28;20064;-70
2023/04/23 09:31:52;;;;;;;7.82;2.10;;;;;;;17.96;64.62;100438.06;5058160;28;20118;-71
2023/04/23 09:34:24;;;;;;;5.32;1.70;;;;;;;18.02;63.35;100440.34;5062168;28;20124;-70
2023/04/23 09:36:52;;;;;;;5.78;2.05;;;;;;;18.09;64.96;100443.44;5082014;28;20570;-70
2023/04/23 09:39:23;;;;;;;7.20;1.85;;;;;;;18.26;64.58;100439.63;5063780;28;20047;-70
2023/04/23 09:41:55;;;;;;;5.28;1.95;;;;;;;18.41;62.32;100443.03;5078482;28;20100;-70
2023/04/23 09:44:22;;;;;;;6.30;1.63;;;;;;;18.54;63.06;100441.22;5060382;28;20790;-70
2023/04/23 09:46:49;;;;;;;6.00;1.77;;;;;;;18.75;61.03;100433.50;5062779;28;20456;-70
2023/04/23 09:49:17;;;;;;;4.78;1.55;;;;;;;18.88;60.51;100427.28;5060335;28;20041;-70
2023/04/23 09:51:47;;;;;;;6.55;1.70;;;;;;;19.01;60.57;100433.50;5068771;28;20169;-70
2023/04/23 09:54:21;;;;;;;4.32;1.40;;;;;;;19.20;59.18;100434.81;5082520;28;20129;-69
2023/04/23 09:56:52;;;;;;;6.13;1.70;;;;;;;19.23;57.97;100429.22;5066977;28;20513;-70
2023/04/23 09:59:27;;;;;;;6.10;1.70;;;;;;;19.17;55.67;100430.56;5059474;28;20029;-70
2023/04/23 10:02:13;;;;;;;6.63;1.80;;;;;;;18.91;56.76;100419.91;5065029;28;20515;-71
2023/04/23 10:04:40;;;;;;;5.72;1.50;;;;;;;18.82;56.80;100425.91;5078275;28;20801;-70
2023/04/23 10:07:12;;;;;;;3.70;1.70;;;;;;;18.78;57.48;100422.59;5058353;28;20076;-70
2023/04/23 10:09:42;;;;;;;5.43;1.42;;;;;;;18.92;57.53;100420.78;5061718;28;20042;-70
2023/04/23 10:12:11;;;;;;;5.40;1.27;;;;;;;19.16;56.57;100425.31;5089789;28;20099;-70
2023/04/23 10:14:59;;;;;;;5.22;1.20;;;;;;;19.45;57.44;100412.47;5062770;28;20041;-70
2023/04/23 10:17:26;;;;;;;3.13;1.30;;;;;;;19.69;56.95;100412.44;5053762;28;20041;-70
2023/04/23 10:19:54;;;;;;;5.10;1.50;;;;;;;19.86;55.29;100411.22;5094410;27;20044;-70
2023/04/23 10:22:24;;;;;;;5.60;1.70;;;;;;;19.98;53.29;100406.72;5075383;28;20090;-70
2023/04/23 10:24:55;;;;;;;7.75;1.38;;;;;;;20.01;53.60;100403.81;5058150;28;20136;-70
2023/04/23 10:27:30;;;;;;;5.88;1.33;;;;;;;20.10;53.32;100412.94;5050581;28;20095;-70
2023/04/23 10:30:19;;;;;;;7.50;1.50;;;;;;;20.09;52.91;100416.63;5067426;28;20033;-70
2023/04/23 10:32:48;;;;;;;5.20;1.52;;;;;;;20.12;52.20;100404.81;5083392;27;20490;-71
2023/04/23 10:35:15;;;;;;;6.70;1.58;;;;;;;20.20;52.93;100410.41;5053207;28;20510;-70
2023/04/23 10:37:45;;;;;;;5.60;1.10;;;;;;;20.25;52.69;100397.53;5100748;28;20043;-70
2023/04/23 10:40:20;;;;;;;5.28;1.17;;;;;;;20.48;52.74;100394.84;5066134;28;20252;-70
2023/04/23 10:42:49;;;;;;;8.57;1.27;;;;;;;20.59;52.19;100388.66;5063585;28;20041;-70
2023/04/23 10:45:19;;;;;;;8.25;1.60;;;;;;;20.64;51.32;100389.13;5064885;28;20967;-69
2023/04/23 10:47:56;;;;;;;5.05;1.20;;;;;;;20.64;50.07;100383.78;5069195;28;20128;-70
2023/04/23 10:50:27;;;;;;;7.40;1.52;;;;;;;20.68;50.74;100376.34;5063472;28;20045;-70
2023/04/23 10:52:56;;;;;;;7.10;1.20;;;;;;;20.68;51.49;100376.34;5098637;27;20140;-70
2023/04/23 10:55:27;;;;;;;5.45;1.42;;;;;;;20.52;50.29;100377.59;5069131;28;20037;-70
2023/04/23 10:57:59;;;;;;;5.13;1.13;;;;;;;20.26;50.65;100375.13;5067274;28;20124;-70
2023/04/23 11:00:42;;;;;;;;;;;;;;;19.97;51.29;100372.09;5066387;28;20067;-70
2023/04/23 11:03:40;;;;;;;7.40;1.65;;;;;;;19.62;52.03;100365.78;5066656;28;20025;-70
2023/04/23 11:06:47;;;;;;;8.57;1.30;;;;;;;19.37;52.65;100369.44;5066397;28;20532;-70
2023/04/23 11:09:35;;;;;;;6.18;1.30;;;;;;;19.23;53.24;100365.09;5049129;28;20045;-70
2023/04/23 11:12:07;;;;;;;5.68;1.40;;;;;;;19.27;53.08;100361.25;5059746;28;20173;-70
2023/04/23 11:14:40;;;;;;;3.92;1.30;;;;;;;19.39;53.28;100360.34;5061894;28;20048;-70
2023/04/23 11:17:12;;;;;;;5.45;1.30;;;;;;;19.62;53.38;100356.88;5068173;28;20552;-70
2023/04/23 11:19:41;;;;;;;3.55;1.10;;;;;;;19.88;51.96;100359.44;5067178;28;20111;-70
2023/04/23 11:22:17;;;;;;;4.10;1.25;;;;;;;20.12;51.98;100356.66;5068673;28;20437;-69
2023/04/23 11:24:45;;;;;;;6.32;1.45;;;;;;;20.35;50.17;100340.63;5066466;28;20068;-70